createdAt,value
2024-01-25T00:00:14.632Z,3.5
2024-01-25T00:03:16.579Z,3.6
2024-01-25T00:06:18.573Z,3.2
2024-01-25T00:09:20.515Z,3
2024-01-25T00:12:22.408Z,2.9
2024-01-25T00:15:24.367Z,3.6
2024-01-25T00:18:26.393Z,3.7
2024-01-25T00:21:28.358Z,3.7
2024-01-25T00:27:32.241Z,3.7
2024-01-25T00:30:34.203Z,3.5
2024-01-25T00:33:36.260Z,4.1
2024-01-25T00:36:38.108Z,2.7
2024-01-25T00:39:40.050Z,3.9
2024-01-25T00:42:41.994Z,3
2024-01-25T00:45:43.970Z,3
2024-01-25T00:48:46.061Z,3.3
2024-01-25T00:51:47.948Z,4
2024-01-25T00:54:49.830Z,3.3
2024-01-25T00:57:51.845Z,3.5
2024-01-25T01:00:53.739Z,3
2024-01-25T01:03:55.778Z,3.7
2024-01-25T01:06:57.641Z,4.1
2024-01-25T01:09:59.634Z,3.2
2024-01-25T01:13:01.495Z,3.6
2024-01-25T01:16:03.457Z,4.2
2024-01-25T01:19:05.452Z,4.2
2024-01-25T01:22:07.404Z,3.8
2024-01-25T01:25:09.315Z,4.4
2024-01-25T01:28:11.283Z,3.6
2024-01-25T01:31:13.271Z,3.6
2024-01-25T01:34:15.385Z,3.8
2024-01-25T01:37:17.201Z,3.8
2024-01-25T01:40:19.101Z,3.9
2024-01-25T01:43:21.507Z,2.7
2024-01-25T01:46:23.113Z,3.1
2024-01-25T01:49:25.224Z,3.6
2024-01-25T01:52:27.028Z,2.7
2024-01-25T01:55:28.884Z,3.6
2024-01-25T01:58:30.806Z,3.7
2024-01-25T02:01:34.194Z,3.6
2024-01-25T02:04:34.842Z,3.1
2024-01-25T02:07:36.691Z,3.1
2024-01-25T02:10:38.640Z,4
2024-01-25T02:13:40.591Z,3.8
2024-01-25T02:16:42.662Z,3.7
2024-01-25T02:19:44.541Z,3.2
2024-01-25T02:22:46.440Z,3.8
2024-01-25T02:25:48.465Z,3.6
2024-01-25T02:28:50.411Z,3.9
2024-01-25T02:31:52.296Z,4.5
2024-01-25T02:34:54.294Z,3.9
2024-01-25T02:37:56.259Z,3.9
2024-01-25T02:40:58.458Z,3.8
2024-01-25T02:44:00.226Z,3.2
2024-01-25T02:47:02.088Z,3
2024-01-25T02:50:04.226Z,4.2
2024-01-25T02:53:06.024Z,3.7
2024-01-25T02:56:08.031Z,3.5
2024-01-25T02:59:09.951Z,4
2024-01-25T03:02:12.023Z,3.1
2024-01-25T03:05:14.004Z,3.9
2024-01-25T03:08:15.889Z,4
2024-01-25T03:11:17.769Z,3.2
2024-01-25T03:14:19.711Z,3.5
2024-01-25T03:17:21.662Z,2.4
2024-01-25T03:20:23.716Z,3.1
2024-01-25T03:23:25.616Z,3.4
2024-01-25T03:26:27.522Z,3.3
2024-01-25T03:29:29.485Z,2.3
2024-01-25T03:32:32.620Z,2.8
2024-01-25T03:35:33.444Z,4
2024-01-25T03:38:35.334Z,3
2024-01-25T03:41:37.359Z,3.2
2024-01-25T03:44:39.299Z,3.3
2024-01-25T03:47:41.275Z,3.3
2024-01-25T03:50:43.194Z,3.6
2024-01-25T03:53:45.161Z,4.1
2024-01-25T03:56:47.125Z,3.1
2024-01-25T03:59:49.021Z,3
2024-01-25T04:02:50.959Z,3.8
2024-01-25T04:05:53.099Z,3.4
2024-01-25T04:08:54.886Z,3.6
2024-01-25T04:11:56.880Z,3
2024-01-25T04:14:58.824Z,3.2
2024-01-25T04:18:00.767Z,3.5
2024-01-25T04:21:02.663Z,3.5
2024-01-25T04:27:06.600Z,4.1
2024-01-25T04:30:08.575Z,3.4
2024-01-25T04:33:10.555Z,3.3
2024-01-25T04:36:12.462Z,3.8
2024-01-25T04:39:14.397Z,4.2
2024-01-25T04:42:16.363Z,3.2
2024-01-25T04:45:18.353Z,3.5
2024-01-25T04:48:20.375Z,3.6
2024-01-25T04:51:22.187Z,3.6
2024-01-25T04:57:26.164Z,4.1
2024-01-25T05:00:28.080Z,3.3
2024-01-25T05:03:30.199Z,3.5
2024-01-25T05:06:32.154Z,3.1
2024-01-25T05:09:34.073Z,3.5
2024-01-25T05:12:36.034Z,4
2024-01-25T05:15:38.183Z,4
2024-01-25T05:18:39.961Z,3.3
2024-01-25T05:21:41.842Z,3.4
2024-01-25T05:24:43.792Z,3.9
2024-01-25T05:27:45.729Z,3
2024-01-25T05:30:47.738Z,3.9
2024-01-25T05:33:49.867Z,4
2024-01-25T05:36:51.697Z,4
2024-01-25T05:39:53.564Z,3.7
2024-01-25T05:42:55.556Z,3.8
2024-01-25T05:45:57.543Z,4.2
2024-01-25T05:48:59.541Z,3.9
2024-01-25T05:52:01.463Z,4.6
2024-01-25T05:55:05.271Z,4.2
2024-01-25T05:58:05.352Z,4.7
2024-01-25T06:01:07.432Z,3.2
2024-01-25T06:04:09.361Z,3.6
2024-01-25T06:07:11.282Z,3.7
2024-01-25T06:10:13.178Z,3.8
2024-01-25T06:13:15.234Z,4.2
2024-01-25T06:16:17.124Z,4.1
2024-01-25T06:19:19.148Z,4
2024-01-25T06:22:21.040Z,3.4
2024-01-25T06:25:22.986Z,3.4
2024-01-25T06:28:25.015Z,3.7
2024-01-25T06:31:26.971Z,4.5
2024-01-25T06:34:28.902Z,3.2
2024-01-25T06:37:30.876Z,4
2024-01-25T06:40:32.825Z,4.4
2024-01-25T06:43:34.831Z,3.5
2024-01-25T06:46:36.703Z,3.7
2024-01-25T06:49:38.722Z,4
2024-01-25T06:52:40.595Z,4.3
2024-01-25T06:55:42.488Z,4.3
2024-01-25T06:58:44.500Z,3.3
2024-01-25T07:01:46.474Z,3.2
2024-01-25T07:04:48.462Z,3.8
2024-01-25T07:07:50.429Z,3.1
2024-01-25T07:10:52.261Z,3.6
2024-01-25T07:13:54.212Z,4.2
2024-01-25T07:16:56.212Z,3.6
2024-01-25T07:19:58.316Z,3.9
2024-01-25T07:23:00.117Z,3.8
2024-01-25T07:26:02.076Z,3.9
2024-01-25T07:29:04.014Z,4.2
2024-01-25T07:32:05.956Z,4
2024-01-25T07:35:07.963Z,4.7
2024-01-25T07:38:09.905Z,4.2
2024-01-25T07:41:11.812Z,3.7
2024-01-25T07:44:14.415Z,4.3
2024-01-25T07:47:15.784Z,5.3
2024-01-25T07:50:17.748Z,4
2024-01-25T07:53:19.708Z,5
2024-01-25T07:56:21.603Z,3.7
2024-01-25T07:59:23.600Z,3.8
2024-01-25T08:02:25.665Z,3.7
2024-01-25T08:05:31.360Z,4
2024-01-25T08:08:29.444Z,4.1
2024-01-25T08:11:31.446Z,4.8
2024-01-25T08:14:33.335Z,3.3
2024-01-25T08:17:35.441Z,3.9
2024-01-25T08:20:37.423Z,4.1
2024-01-25T08:23:39.199Z,4.4
2024-01-25T08:26:41.204Z,3.3
2024-01-25T08:29:43.113Z,4.5
2024-01-25T08:32:45.133Z,4.2
2024-01-25T08:35:47.206Z,3.9
2024-01-25T08:38:49.021Z,5.3
2024-01-25T08:41:50.935Z,4
2024-01-25T08:44:52.893Z,5.2
2024-01-25T08:47:54.918Z,3.8
2024-01-25T08:50:56.885Z,4.3
2024-01-25T08:57:00.715Z,3.5
2024-01-25T09:00:02.722Z,5.2
2024-01-25T09:03:04.612Z,4.2
2024-01-25T09:06:06.920Z,4.6
2024-01-25T09:09:08.607Z,3.1
2024-01-25T09:12:10.551Z,4.1
2024-01-25T09:15:12.506Z,4.7
2024-01-25T09:18:14.493Z,4.4
2024-01-25T09:21:16.501Z,5.1
2024-01-25T09:27:20.326Z,4
2024-01-25T09:30:22.315Z,5
2024-01-25T09:33:24.263Z,4.4
2024-01-25T09:36:26.196Z,4.8
2024-01-25T09:39:28.082Z,4.5
2024-01-25T09:42:30.035Z,3.8
2024-01-25T09:45:32.060Z,4.7
2024-01-25T09:48:34.141Z,3.7
2024-01-25T09:51:35.981Z,4.7
2024-01-25T09:54:37.992Z,5.3
2024-01-25T09:57:39.919Z,5.3
2024-01-25T10:00:41.902Z,4.7
2024-01-25T10:03:43.866Z,3.8
2024-01-25T10:06:45.778Z,3.7
2024-01-25T10:09:47.691Z,3.4
2024-01-25T10:12:49.800Z,3.8
2024-01-25T10:15:51.612Z,4.7
2024-01-25T10:18:53.739Z,4.1
2024-01-25T10:21:55.610Z,4.5
2024-01-25T10:24:57.584Z,4.9
2024-01-25T10:27:59.517Z,4.9
2024-01-25T10:31:01.373Z,5.2
2024-01-25T10:34:03.454Z,4.7
2024-01-25T10:37:05.293Z,5
2024-01-25T10:40:07.503Z,3.9
2024-01-25T10:43:09.190Z,3.8
2024-01-25T10:46:11.132Z,4.5
2024-01-25T10:49:13.131Z,3.4
2024-01-25T10:52:15.060Z,4.9
2024-01-25T10:55:17.183Z,4.5
2024-01-25T10:58:19.179Z,4.4
2024-01-25T11:01:20.935Z,4
2024-01-25T11:04:22.929Z,5.3
2024-01-25T11:07:24.855Z,4.6
2024-01-25T11:10:26.839Z,4.6
2024-01-25T11:13:28.731Z,4.2
2024-01-25T11:16:30.874Z,4.4
2024-01-25T11:19:32.662Z,3.6
2024-01-25T11:22:34.742Z,3.8
2024-01-25T11:25:36.602Z,3.9
2024-01-25T11:28:38.558Z,4.4
2024-01-25T11:31:40.568Z,3.9
2024-01-25T11:34:42.544Z,3.2
2024-01-25T11:37:44.440Z,3.7
2024-01-25T11:40:46.412Z,5.2
2024-01-25T11:43:48.366Z,4.3
2024-01-25T11:46:50.298Z,4.7
2024-01-25T11:49:52.414Z,3.2
2024-01-25T11:52:54.183Z,4.9
2024-01-25T11:55:56.123Z,3.5
2024-01-25T11:58:58.120Z,4
2024-01-25T12:02:00.150Z,3.3
2024-01-25T12:05:02.143Z,5
2024-01-25T12:08:04.091Z,4.8
2024-01-25T12:11:05.981Z,4.4
2024-01-25T12:14:07.923Z,3.8
2024-01-25T12:17:09.883Z,3.8
2024-01-25T12:20:12.465Z,3.4
2024-01-25T12:23:13.833Z,3.9
2024-01-25T12:26:15.800Z,3.1
2024-01-25T12:29:17.743Z,4.6
2024-01-25T12:32:19.743Z,3.5
2024-01-25T12:35:21.902Z,3.8
2024-01-25T12:38:23.708Z,3.4
2024-01-25T12:41:25.688Z,3.1
2024-01-25T12:44:27.593Z,3.6
2024-01-25T12:47:29.670Z,4.1
2024-01-25T12:50:31.572Z,3.7
2024-01-25T12:53:33.506Z,3.9
2024-01-25T12:56:35.472Z,2.9
2024-01-25T12:59:37.764Z,3.9
2024-01-25T13:02:39.404Z,4
2024-01-25T13:05:41.425Z,3.4
2024-01-25T13:08:43.275Z,3.5
2024-01-25T13:11:45.217Z,4.6
2024-01-25T13:14:47.217Z,3.4
2024-01-25T13:17:49.141Z,4.1
2024-01-25T13:20:51.124Z,3
2024-01-25T13:23:53.037Z,3.5
2024-01-25T13:26:55.035Z,4.4
2024-01-25T13:29:56.978Z,3.3
2024-01-25T13:32:59.060Z,3.4
2024-01-25T13:36:00.885Z,3.5
2024-01-25T13:39:02.936Z,3.7
2024-01-25T13:42:04.803Z,3.7
2024-01-25T13:45:06.824Z,3.9
2024-01-25T13:48:08.757Z,3.2
2024-01-25T13:51:10.780Z,3.4
2024-01-25T13:57:14.708Z,3.9
2024-01-25T14:00:16.669Z,3.6
2024-01-25T14:03:18.689Z,3.3
2024-01-25T14:06:20.563Z,3.7
2024-01-25T14:09:22.540Z,3.9
2024-01-25T14:12:24.518Z,4.3
2024-01-25T14:15:26.436Z,3.3
2024-01-25T14:18:28.490Z,3.3
2024-01-25T14:21:30.451Z,3.6
2024-01-25T14:24:32.281Z,2.4
2024-01-25T14:27:34.390Z,3.1
2024-01-25T14:30:36.348Z,3.5
2024-01-25T14:33:40.153Z,3.1
2024-01-25T14:36:40.248Z,3.8
2024-01-25T14:39:44.877Z,2.8
2024-01-25T14:42:44.147Z,4.5
2024-01-25T14:45:46.141Z,4
2024-01-25T14:48:48.171Z,3.8
2024-01-25T14:51:50.009Z,2.8
2024-01-25T14:54:51.991Z,3.4
2024-01-25T14:57:53.964Z,2.8
2024-01-25T15:00:55.955Z,3.4
2024-01-25T15:03:57.889Z,3.3
2024-01-25T15:06:59.816Z,3.6
2024-01-25T15:10:02.211Z,3.4
2024-01-25T15:13:03.823Z,3.3
2024-01-25T15:16:05.778Z,3.3
2024-01-25T15:19:07.789Z,3.1
2024-01-25T15:22:09.681Z,4
2024-01-25T15:25:11.597Z,3.4
2024-01-25T15:28:13.553Z,3.6
2024-01-25T15:31:15.550Z,4.3
2024-01-25T15:34:17.588Z,3.6
2024-01-25T15:37:19.474Z,3.2
2024-01-25T15:40:21.432Z,4
2024-01-25T15:43:23.401Z,4.7
2024-01-25T15:46:25.353Z,3.4
2024-01-25T15:49:27.284Z,3
2024-01-25T15:52:29.303Z,2.9
2024-01-25T15:55:31.221Z,3.9
2024-01-25T15:58:33.185Z,3.5
2024-01-25T16:01:35.116Z,3.3
2024-01-25T16:04:37.120Z,4.3
2024-01-25T16:07:40.251Z,3
2024-01-25T16:10:40.935Z,3.3
2024-01-25T16:13:44.413Z,3.6
2024-01-25T16:16:44.925Z,3.3
2024-01-25T16:19:46.895Z,3.7
2024-01-25T16:22:48.838Z,3
2024-01-25T16:25:50.781Z,2.7
2024-01-25T16:28:52.680Z,2.9
2024-01-25T16:31:54.681Z,3
2024-01-25T16:34:56.633Z,3.3
2024-01-25T16:37:58.595Z,3
2024-01-25T16:41:00.540Z,3.4
2024-01-25T16:44:02.461Z,3.2
2024-01-25T16:47:04.430Z,3.8
2024-01-25T16:50:06.545Z,3.5
2024-01-25T16:53:08.319Z,3.6
2024-01-25T16:56:10.269Z,2.6
2024-01-25T16:59:12.248Z,3.3
2024-01-25T17:02:14.237Z,3.8
2024-01-25T17:05:16.174Z,2.7
2024-01-25T17:08:18.198Z,2.8
2024-01-25T17:11:20.070Z,3.8
2024-01-25T17:14:22.018Z,2.7
2024-01-25T17:17:24.036Z,3.6
2024-01-25T17:20:26.043Z,2.7
2024-01-25T17:23:27.938Z,3.4
2024-01-25T17:26:29.867Z,3.1
2024-01-25T17:29:31.873Z,4
2024-01-25T17:32:33.892Z,3.2
2024-01-25T17:35:35.731Z,3.4
2024-01-25T17:38:37.975Z,3.6
2024-01-25T17:41:39.619Z,2.5
2024-01-25T17:47:43.544Z,3.7
2024-01-25T17:50:45.547Z,3
2024-01-25T17:53:47.436Z,4.3
2024-01-25T17:56:49.482Z,3.2
2024-01-25T17:59:51.350Z,4.1
2024-01-25T18:02:53.481Z,3.9
2024-01-25T18:05:55.250Z,3.8
2024-01-25T18:08:57.241Z,3.3
2024-01-25T18:11:59.215Z,2.8
2024-01-25T18:15:01.180Z,3.7
2024-01-25T18:18:03.140Z,3.7
2024-01-25T18:21:05.103Z,3.1
2024-01-25T18:27:08.928Z,4.3
2024-01-25T18:30:10.869Z,4.1
2024-01-25T18:33:12.846Z,4.5
2024-01-25T18:36:14.858Z,5.3
2024-01-25T18:39:16.843Z,5.1
2024-01-25T18:42:18.764Z,4.2
2024-01-25T18:45:20.707Z,4.6
2024-01-25T18:48:22.670Z,4.2
2024-01-25T18:51:24.578Z,3.6
2024-01-25T18:57:28.558Z,4.6
2024-01-25T19:00:30.480Z,4.9
2024-01-25T19:03:32.472Z,4.5
2024-01-25T19:06:34.337Z,3.7
2024-01-25T19:09:36.368Z,3.7
2024-01-25T19:12:38.286Z,4
2024-01-25T19:15:40.257Z,4.5
2024-01-25T19:18:42.170Z,3.9
2024-01-25T19:21:44.113Z,3.7
2024-01-25T19:24:46.040Z,3.7
2024-01-25T19:27:48.038Z,3.7
2024-01-25T19:30:50.066Z,4.7
2024-01-25T19:33:51.966Z,3.5
2024-01-25T19:36:54.029Z,4
2024-01-25T19:39:55.942Z,5
2024-01-25T19:42:57.894Z,3.8
2024-01-25T19:45:59.801Z,3.7
2024-01-25T19:49:01.802Z,4.4
2024-01-25T19:52:03.775Z,3.6
2024-01-25T19:55:05.664Z,5
2024-01-25T19:58:07.791Z,4.4
2024-01-25T20:01:09.604Z,4.1
2024-01-25T20:04:11.589Z,4.2
2024-01-25T20:07:13.641Z,3.9
2024-01-25T20:10:15.420Z,4.2
2024-01-25T20:13:17.431Z,4.1
2024-01-25T20:16:19.467Z,6
2024-01-25T20:19:21.315Z,5.1
2024-01-25T20:22:23.239Z,4.8
2024-01-25T20:25:25.200Z,4.5
2024-01-25T20:28:27.128Z,4.8
2024-01-25T20:31:29.075Z,5.6
2024-01-25T20:34:31.071Z,5.3
2024-01-25T20:37:33.049Z,6.6
2024-01-25T20:40:34.943Z,6.8
2024-01-25T20:43:36.880Z,5
2024-01-25T20:46:38.833Z,6.1
2024-01-25T20:49:40.822Z,11.6
2024-01-25T20:52:42.744Z,7.4
2024-01-25T20:55:44.681Z,6.2
2024-01-25T20:58:46.651Z,6.2
2024-01-25T21:01:48.630Z,6.9
2024-01-25T21:04:50.568Z,5.8
2024-01-25T21:07:52.528Z,7.2
2024-01-25T21:10:54.524Z,7
2024-01-25T21:13:56.444Z,6.2
2024-01-25T21:16:58.463Z,6.6
2024-01-25T21:20:00.650Z,7.1
2024-01-25T21:23:02.288Z,6.8
2024-01-25T21:26:04.232Z,6.9
2024-01-25T21:29:06.238Z,5.3
2024-01-25T21:32:08.351Z,5.5
2024-01-25T21:35:10.266Z,6.4
2024-01-25T21:38:12.106Z,6.6
2024-01-25T21:41:14.037Z,5.8
2024-01-25T21:44:15.995Z,6.9
2024-01-25T21:47:18.020Z,6.3
2024-01-25T21:50:19.904Z,7
2024-01-25T21:53:21.874Z,7.8
2024-01-25T21:56:23.959Z,6.6
2024-01-25T21:59:25.883Z,6.1
2024-01-25T22:02:27.809Z,6.3
2024-01-25T22:05:29.762Z,7.3
2024-01-25T22:08:31.648Z,7.3
2024-01-25T22:11:33.587Z,7.8
2024-01-25T22:14:35.543Z,7.2
2024-01-25T22:17:37.645Z,7.6
2024-01-25T22:20:39.502Z,7.4
2024-01-25T22:23:41.400Z,7.3
2024-01-25T22:26:43.346Z,7
2024-01-25T22:29:45.281Z,7.5
2024-01-25T22:32:47.280Z,9.2
2024-01-25T22:35:49.222Z,9.2
2024-01-25T22:38:51.131Z,9.9
2024-01-25T22:41:53.141Z,8.7
2024-01-25T22:44:55.053Z,8.7
2024-01-25T22:47:57.010Z,9.5
2024-01-25T22:50:58.939Z,8.5
2024-01-25T22:57:02.852Z,9
2024-01-25T23:00:04.808Z,9.7
2024-01-25T23:03:06.862Z,10.7
2024-01-25T23:06:08.689Z,9.4
2024-01-25T23:09:10.684Z,10
2024-01-25T23:12:12.610Z,10.4
2024-01-25T23:15:14.657Z,11.7
2024-01-25T23:18:16.589Z,12.5
2024-01-25T23:21:18.486Z,10
2024-01-25T23:27:22.384Z,11.4
2024-01-25T23:30:24.359Z,11.9
2024-01-25T23:33:26.394Z,12.1
2024-01-25T23:36:28.228Z,10.5
2024-01-25T23:39:30.194Z,12.7
2024-01-25T23:42:32.132Z,11.5
2024-01-25T23:45:34.188Z,12.6
2024-01-25T23:48:36.187Z,13.1
2024-01-25T23:51:38.085Z,11.7
2024-01-25T23:54:39.929Z,13.4
2024-01-25T23:57:41.867Z,11.9
